sensor_id;sensor_type;location;lat;lon;timestamp;P1;durP1;ratioP1;P2;durP2;ratioP2
64957;SDS011;51486;50.232;19.208;2023-07-16T00:02:04;5.13;;;3.27;;
64957;SDS011;51486;50.232;19.208;2023-07-16T00:04:50;5.90;;;3.37;;
64957;SDS011;51486;50.232;19.208;2023-07-16T00:07:36;6.03;;;2.67;;
64957;SDS011;51486;50.232;19.208;2023-07-16T00:10:21;4.50;;;2.43;;
64957;SDS011;51486;50.232;19.208;2023-07-16T00:13:07;9.13;;;3.03;;
64957;SDS011;51486;50.232;19.208;2023-07-16T00:15:53;4.50;;;2.80;;
64957;SDS011;51486;50.232;19.208;2023-07-16T00:18:39;4.53;;;2.30;;
64957;SDS011;51486;50.232;19.208;2023-07-16T00:21:24;4.83;;;2.93;;
64957;SDS011;51486;50.232;19.208;2023-07-16T00:24:10;4.67;;;2.50;;
64957;SDS011;51486;50.232;19.208;2023-07-16T00:26:57;6.00;;;3.23;;
64957;SDS011;51486;50.232;19.208;2023-07-16T00:29:42;3.43;;;2.47;;
64957;SDS011;51486;50.232;19.208;2023-07-16T00:32:28;4.00;;;2.63;;
64957;SDS011;51486;50.232;19.208;2023-07-16T00:35:14;8.90;;;3.57;;
64957;SDS011;51486;50.232;19.208;2023-07-16T00:37:59;6.10;;;3.33;;
64957;SDS011;51486;50.232;19.208;2023-07-16T00:40:46;5.33;;;2.97;;
64957;SDS011;51486;50.232;19.208;2023-07-16T00:43:32;4.87;;;3.10;;
64957;SDS011;51486;50.232;19.208;2023-07-16T00:46:17;4.43;;;2.67;;
64957;SDS011;51486;50.232;19.208;2023-07-16T00:49:03;5.63;;;3.00;;
64957;SDS011;51486;50.232;19.208;2023-07-16T00:51:49;6.67;;;3.10;;
64957;SDS011;51486;50.232;19.208;2023-07-16T00:54:35;4.80;;;3.30;;
64957;SDS011;51486;50.232;19.208;2023-07-16T00:57:20;7.20;;;3.87;;
64957;SDS011;51486;50.232;19.208;2023-07-16T01:00:06;5.70;;;2.97;;
64957;SDS011;51486;50.232;19.208;2023-07-16T01:02:53;6.27;;;3.63;;
64957;SDS011;51486;50.232;19.208;2023-07-16T01:05:42;4.27;;;3.60;;
64957;SDS011;51486;50.232;19.208;2023-07-16T01:08:35;6.97;;;3.80;;
64957;SDS011;51486;50.232;19.208;2023-07-16T01:11:23;5.03;;;3.30;;
64957;SDS011;51486;50.232;19.208;2023-07-16T01:14:09;26.37;;;3.13;;
64957;SDS011;51486;50.232;19.208;2023-07-16T01:16:55;4.43;;;3.30;;
64957;SDS011;51486;50.232;19.208;2023-07-16T01:19:44;10.07;;;3.30;;
64957;SDS011;51486;50.232;19.208;2023-07-16T01:25:21;5.97;;;3.50;;
64957;SDS011;51486;50.232;19.208;2023-07-16T01:28:32;6.80;;;3.60;;
64957;SDS011;51486;50.232;19.208;2023-07-16T01:31:23;6.93;;;4.33;;
64957;SDS011;51486;50.232;19.208;2023-07-16T01:34:09;7.13;;;3.47;;
64957;SDS011;51486;50.232;19.208;2023-07-16T01:36:55;5.50;;;3.67;;
64957;SDS011;51486;50.232;19.208;2023-07-16T01:39:41;7.67;;;3.30;;
64957;SDS011;51486;50.232;19.208;2023-07-16T01:42:26;4.13;;;3.03;;
64957;SDS011;51486;50.232;19.208;2023-07-16T01:45:12;6.10;;;3.43;;
64957;SDS011;51486;50.232;19.208;2023-07-16T01:51:03;4.83;;;3.03;;
64957;SDS011;51486;50.232;19.208;2023-07-16T01:53:49;5.40;;;3.60;;
64957;SDS011;51486;50.232;19.208;2023-07-16T01:56:34;4.17;;;2.97;;
64957;SDS011;51486;50.232;19.208;2023-07-16T01:59:20;6.60;;;3.43;;
64957;SDS011;51486;50.232;19.208;2023-07-16T02:02:06;7.37;;;3.80;;
64957;SDS011;51486;50.232;19.208;2023-07-16T02:04:51;6.13;;;3.83;;
64957;SDS011;51486;50.232;19.208;2023-07-16T02:07:37;6.90;;;3.90;;
64957;SDS011;51486;50.232;19.208;2023-07-16T02:10:23;6.13;;;3.73;;
64957;SDS011;51486;50.232;19.208;2023-07-16T02:13:09;5.80;;;4.30;;
64957;SDS011;51486;50.232;19.208;2023-07-16T02:15:54;5.57;;;3.53;;
64957;SDS011;51486;50.232;19.208;2023-07-16T02:18:40;5.27;;;3.03;;
64957;SDS011;51486;50.232;19.208;2023-07-16T02:21:26;5.20;;;4.30;;
64957;SDS011;51486;50.232;19.208;2023-07-16T02:24:11;6.53;;;4.03;;
64957;SDS011;51486;50.232;19.208;2023-07-16T02:26:57;6.17;;;3.67;;
64957;SDS011;51486;50.232;19.208;2023-07-16T02:29:43;5.73;;;3.93;;
64957;SDS011;51486;50.232;19.208;2023-07-16T02:32:28;6.03;;;4.10;;
64957;SDS011;51486;50.232;19.208;2023-07-16T02:35:14;7.47;;;3.93;;
64957;SDS011;51486;50.232;19.208;2023-07-16T02:38:00;8.30;;;4.40;;
64957;SDS011;51486;50.232;19.208;2023-07-16T02:40:46;7.83;;;4.57;;
64957;SDS011;51486;50.232;19.208;2023-07-16T02:43:32;6.80;;;3.60;;
64957;SDS011;51486;50.232;19.208;2023-07-16T02:46:18;9.03;;;4.70;;
64957;SDS011;51486;50.232;19.208;2023-07-16T02:49:04;6.17;;;4.27;;
64957;SDS011;51486;50.232;19.208;2023-07-16T02:51:50;7.30;;;4.03;;
64957;SDS011;51486;50.232;19.208;2023-07-16T02:54:36;7.23;;;4.13;;
64957;SDS011;51486;50.232;19.208;2023-07-16T02:57:22;6.87;;;3.63;;
64957;SDS011;51486;50.232;19.208;2023-07-16T03:00:08;7.17;;;4.20;;
64957;SDS011;51486;50.232;19.208;2023-07-16T03:02:54;5.47;;;4.07;;
64957;SDS011;51486;50.232;19.208;2023-07-16T03:05:39;9.90;;;4.17;;
64957;SDS011;51486;50.232;19.208;2023-07-16T03:08:25;7.23;;;4.20;;
64957;SDS011;51486;50.232;19.208;2023-07-16T03:11:15;5.57;;;3.73;;
64957;SDS011;51486;50.232;19.208;2023-07-16T03:14:00;6.20;;;3.67;;
64957;SDS011;51486;50.232;19.208;2023-07-16T03:16:46;6.70;;;4.13;;
64957;SDS011;51486;50.232;19.208;2023-07-16T03:19:32;10.67;;;4.00;;
64957;SDS011;51486;50.232;19.208;2023-07-16T03:22:18;4.20;;;3.03;;
64957;SDS011;51486;50.232;19.208;2023-07-16T03:25:04;6.60;;;4.40;;
64957;SDS011;51486;50.232;19.208;2023-07-16T03:27:50;5.93;;;3.83;;
64957;SDS011;51486;50.232;19.208;2023-07-16T03:30:35;12.87;;;4.73;;
64957;SDS011;51486;50.232;19.208;2023-07-16T03:33:22;6.17;;;3.93;;
64957;SDS011;51486;50.232;19.208;2023-07-16T03:36:08;6.37;;;4.23;;
64957;SDS011;51486;50.232;19.208;2023-07-16T03:38:54;7.93;;;4.67;;
64957;SDS011;51486;50.232;19.208;2023-07-16T03:41:39;5.83;;;3.80;;
64957;SDS011;51486;50.232;19.208;2023-07-16T03:44:25;7.77;;;4.47;;
64957;SDS011;51486;50.232;19.208;2023-07-16T03:47:11;6.30;;;4.07;;
64957;SDS011;51486;50.232;19.208;2023-07-16T03:49:57;8.20;;;4.27;;
64957;SDS011;51486;50.232;19.208;2023-07-16T03:52:43;6.50;;;4.50;;
64957;SDS011;51486;50.232;19.208;2023-07-16T03:55:29;4.87;;;4.07;;
64957;SDS011;51486;50.232;19.208;2023-07-16T03:58:15;8.57;;;4.67;;
64957;SDS011;51486;50.232;19.208;2023-07-16T04:01:01;7.17;;;4.70;;
64957;SDS011;51486;50.232;19.208;2023-07-16T04:03:46;17.23;;;4.63;;
64957;SDS011;51486;50.232;19.208;2023-07-16T04:06:32;5.27;;;4.00;;
64957;SDS011;51486;50.232;19.208;2023-07-16T04:09:18;7.67;;;4.47;;
64957;SDS011;51486;50.232;19.208;2023-07-16T04:12:04;8.13;;;4.90;;
64957;SDS011;51486;50.232;19.208;2023-07-16T04:14:53;9.63;;;4.87;;
64957;SDS011;51486;50.232;19.208;2023-07-16T04:17:39;8.63;;;4.73;;
64957;SDS011;51486;50.232;19.208;2023-07-16T04:20:25;7.37;;;4.50;;
64957;SDS011;51486;50.232;19.208;2023-07-16T04:23:11;6.57;;;4.07;;
64957;SDS011;51486;50.232;19.208;2023-07-16T04:25:56;9.27;;;4.47;;
64957;SDS011;51486;50.232;19.208;2023-07-16T04:28:42;6.27;;;4.37;;
64957;SDS011;51486;50.232;19.208;2023-07-16T04:31:28;6.33;;;4.53;;
64957;SDS011;51486;50.232;19.208;2023-07-16T04:34:14;11.67;;;4.83;;
64957;SDS011;51486;50.232;19.208;2023-07-16T04:36:59;9.07;;;4.80;;
64957;SDS011;51486;50.232;19.208;2023-07-16T04:39:45;8.90;;;4.93;;
64957;SDS011;51486;50.232;19.208;2023-07-16T04:42:31;6.90;;;4.03;;
64957;SDS011;51486;50.232;19.208;2023-07-16T04:45:16;8.87;;;4.80;;
64957;SDS011;51486;50.232;19.208;2023-07-16T04:48:02;6.10;;;3.80;;
64957;SDS011;51486;50.232;19.208;2023-07-16T04:50:48;5.70;;;3.43;;
64957;SDS011;51486;50.232;19.208;2023-07-16T04:53:36;5.03;;;3.60;;
64957;SDS011;51486;50.232;19.208;2023-07-16T04:56:21;6.33;;;3.50;;
64957;SDS011;51486;50.232;19.208;2023-07-16T04:59:07;13.80;;;4.23;;
64957;SDS011;51486;50.232;19.208;2023-07-16T05:01:53;4.85;;;3.10;;
64957;SDS011;51486;50.232;19.208;2023-07-16T05:04:38;5.72;;;3.38;;
64957;SDS011;51486;50.232;19.208;2023-07-16T05:07:24;4.82;;;3.10;;
64957;SDS011;51486;50.232;19.208;2023-07-16T05:10:10;5.35;;;3.20;;
64957;SDS011;51486;50.232;19.208;2023-07-16T05:12:56;5.75;;;3.78;;
64957;SDS011;51486;50.232;19.208;2023-07-16T05:15:43;5.75;;;2.97;;
64957;SDS011;51486;50.232;19.208;2023-07-16T05:18:30;6.93;;;3.38;;
64957;SDS011;51486;50.232;19.208;2023-07-16T05:21:15;4.65;;;3.45;;
64957;SDS011;51486;50.232;19.208;2023-07-16T05:24:01;5.75;;;3.53;;
64957;SDS011;51486;50.232;19.208;2023-07-16T05:26:47;6.22;;;2.85;;
64957;SDS011;51486;50.232;19.208;2023-07-16T05:29:34;9.25;;;2.97;;
64957;SDS011;51486;50.232;19.208;2023-07-16T05:32:19;7.68;;;3.08;;
64957;SDS011;51486;50.232;19.208;2023-07-16T05:35:05;4.82;;;2.40;;
64957;SDS011;51486;50.232;19.208;2023-07-16T05:37:51;4.15;;;2.72;;
64957;SDS011;51486;50.232;19.208;2023-07-16T05:40:37;3.97;;;2.83;;
64957;SDS011;51486;50.232;19.208;2023-07-16T05:43:23;6.13;;;3.00;;
64957;SDS011;51486;50.232;19.208;2023-07-16T05:46:08;2.92;;;2.00;;
64957;SDS011;51486;50.232;19.208;2023-07-16T05:48:54;4.35;;;2.10;;
64957;SDS011;51486;50.232;19.208;2023-07-16T05:51:40;4.32;;;2.90;;
64957;SDS011;51486;50.232;19.208;2023-07-16T05:54:25;4.85;;;2.60;;
64957;SDS011;51486;50.232;19.208;2023-07-16T05:57:11;2.95;;;2.28;;
64957;SDS011;51486;50.232;19.208;2023-07-16T05:59:57;5.25;;;2.50;;
64957;SDS011;51486;50.232;19.208;2023-07-16T06:02:43;2.97;;;2.10;;
64957;SDS011;51486;50.232;19.208;2023-07-16T06:05:28;3.22;;;1.85;;
64957;SDS011;51486;50.232;19.208;2023-07-16T06:08:19;4.38;;;2.72;;
64957;SDS011;51486;50.232;19.208;2023-07-16T06:11:05;3.28;;;2.25;;
64957;SDS011;51486;50.232;19.208;2023-07-16T06:13:54;4.57;;;2.38;;
64957;SDS011;51486;50.232;19.208;2023-07-16T06:16:42;3.83;;;2.42;;
64957;SDS011;51486;50.232;19.208;2023-07-16T06:19:28;9.65;;;2.13;;
64957;SDS011;51486;50.232;19.208;2023-07-16T06:22:14;10.43;;;2.15;;
64957;SDS011;51486;50.232;19.208;2023-07-16T06:24:59;21.73;;;2.10;;
64957;SDS011;51486;50.232;19.208;2023-07-16T06:27:45;3.67;;;2.25;;
64957;SDS011;51486;50.232;19.208;2023-07-16T06:30:31;3.15;;;2.22;;
64957;SDS011;51486;50.232;19.208;2023-07-16T06:33:18;3.47;;;2.20;;
64957;SDS011;51486;50.232;19.208;2023-07-16T06:36:04;2.92;;;2.13;;
64957;SDS011;51486;50.232;19.208;2023-07-16T06:38:50;3.85;;;2.38;;
64957;SDS011;51486;50.232;19.208;2023-07-16T06:41:35;2.50;;;1.83;;
64957;SDS011;51486;50.232;19.208;2023-07-16T06:44:22;3.60;;;2.22;;
64957;SDS011;51486;50.232;19.208;2023-07-16T06:47:07;2.83;;;1.98;;
64957;SDS011;51486;50.232;19.208;2023-07-16T06:49:53;6.45;;;2.67;;
64957;SDS011;51486;50.232;19.208;2023-07-16T06:52:39;3.03;;;2.10;;
64957;SDS011;51486;50.232;19.208;2023-07-16T06:55:25;3.58;;;2.47;;
64957;SDS011;51486;50.232;19.208;2023-07-16T06:58:11;3.55;;;2.55;;
64957;SDS011;51486;50.232;19.208;2023-07-16T07:00:58;3.72;;;2.47;;
64957;SDS011;51486;50.232;19.208;2023-07-16T07:03:43;3.10;;;2.00;;
64957;SDS011;51486;50.232;19.208;2023-07-16T07:06:29;4.45;;;2.67;;
64957;SDS011;51486;50.232;19.208;2023-07-16T07:09:15;4.32;;;2.53;;
64957;SDS011;51486;50.232;19.208;2023-07-16T07:12:01;3.05;;;2.00;;
64957;SDS011;51486;50.232;19.208;2023-07-16T07:14:47;3.38;;;2.17;;
64957;SDS011;51486;50.232;19.208;2023-07-16T07:17:33;3.90;;;2.15;;
64957;SDS011;51486;50.232;19.208;2023-07-16T07:20:18;3.25;;;2.13;;
64957;SDS011;51486;50.232;19.208;2023-07-16T07:23:04;5.60;;;2.10;;
64957;SDS011;51486;50.232;19.208;2023-07-16T07:25:50;2.92;;;2.38;;
64957;SDS011;51486;50.232;19.208;2023-07-16T07:28:36;3.22;;;2.28;;
64957;SDS011;51486;50.232;19.208;2023-07-16T07:31:22;3.40;;;1.80;;
64957;SDS011;51486;50.232;19.208;2023-07-16T07:34:08;5.07;;;2.03;;
64957;SDS011;51486;50.232;19.208;2023-07-16T07:36:53;2.05;;;1.60;;
64957;SDS011;51486;50.232;19.208;2023-07-16T07:39:39;3.05;;;1.98;;
64957;SDS011;51486;50.232;19.208;2023-07-16T07:42:25;2.67;;;1.98;;
64957;SDS011;51486;50.232;19.208;2023-07-16T07:45:12;3.10;;;2.30;;
64957;SDS011;51486;50.232;19.208;2023-07-16T07:47:58;3.47;;;2.10;;
64957;SDS011;51486;50.232;19.208;2023-07-16T07:50:43;2.33;;;1.90;;
64957;SDS011;51486;50.232;19.208;2023-07-16T07:53:31;3.85;;;2.55;;
64957;SDS011;51486;50.232;19.208;2023-07-16T07:56:17;3.85;;;2.20;;
64957;SDS011;51486;50.232;19.208;2023-07-16T07:59:03;4.95;;;2.35;;
64957;SDS011;51486;50.232;19.208;2023-07-16T08:01:49;3.22;;;2.20;;
64957;SDS011;51486;50.232;19.208;2023-07-16T08:04:35;4.35;;;2.42;;
64957;SDS011;51486;50.232;19.208;2023-07-16T08:07:21;3.72;;;2.53;;
64957;SDS011;51486;50.232;19.208;2023-07-16T08:10:07;3.42;;;2.28;;
64957;SDS011;51486;50.232;19.208;2023-07-16T08:12:53;3.13;;;2.22;;
64957;SDS011;51486;50.232;19.208;2023-07-16T08:15:38;6.35;;;3.00;;
64957;SDS011;51486;50.232;19.208;2023-07-16T08:18:24;14.13;;;2.70;;
64957;SDS011;51486;50.232;19.208;2023-07-16T08:21:10;5.88;;;2.95;;
64957;SDS011;51486;50.232;19.208;2023-07-16T08:23:55;6.15;;;3.17;;
64957;SDS011;51486;50.232;19.208;2023-07-16T08:26:41;4.00;;;3.03;;
64957;SDS011;51486;50.232;19.208;2023-07-16T08:29:27;3.35;;;2.88;;
64957;SDS011;51486;50.232;19.208;2023-07-16T08:32:12;3.40;;;2.65;;
64957;SDS011;51486;50.232;19.208;2023-07-16T08:34:58;5.20;;;3.45;;
64957;SDS011;51486;50.232;19.208;2023-07-16T08:37:44;4.47;;;2.63;;
64957;SDS011;51486;50.232;19.208;2023-07-16T08:40:29;4.88;;;2.88;;
64957;SDS011;51486;50.232;19.208;2023-07-16T08:43:15;5.22;;;3.10;;
64957;SDS011;51486;50.232;19.208;2023-07-16T08:46:01;5.70;;;3.10;;
64957;SDS011;51486;50.232;19.208;2023-07-16T08:48:47;9.80;;;3.25;;
64957;SDS011;51486;50.232;19.208;2023-07-16T08:51:34;4.05;;;2.55;;
64957;SDS011;51486;50.232;19.208;2023-07-16T08:54:20;4.35;;;2.58;;
64957;SDS011;51486;50.232;19.208;2023-07-16T08:57:07;3.95;;;2.45;;
64957;SDS011;51486;50.232;19.208;2023-07-16T08:59:53;4.03;;;2.67;;
64957;SDS011;51486;50.232;19.208;2023-07-16T09:02:40;10.35;;;2.83;;
64957;SDS011;51486;50.232;19.208;2023-07-16T09:05:26;4.18;;;2.92;;
64957;SDS011;51486;50.232;19.208;2023-07-16T09:08:12;4.97;;;3.47;;
64957;SDS011;51486;50.232;19.208;2023-07-16T09:10:58;4.07;;;3.00;;
64957;SDS011;51486;50.232;19.208;2023-07-16T09:13:44;6.97;;;3.95;;
64957;SDS011;51486;50.232;19.208;2023-07-16T09:16:33;4.10;;;2.90;;
64957;SDS011;51486;50.232;19.208;2023-07-16T09:19:19;5.60;;;3.80;;
64957;SDS011;51486;50.232;19.208;2023-07-16T09:22:05;3.88;;;3.10;;
64957;SDS011;51486;50.232;19.208;2023-07-16T09:24:50;5.13;;;3.78;;
64957;SDS011;51486;50.232;19.208;2023-07-16T09:27:36;5.50;;;3.70;;
64957;SDS011;51486;50.232;19.208;2023-07-16T09:30:22;10.75;;;4.28;;
64957;SDS011;51486;50.232;19.208;2023-07-16T09:35:57;5.85;;;3.97;;
64957;SDS011;51486;50.232;19.208;2023-07-16T09:38:43;5.10;;;4.05;;
64957;SDS011;51486;50.232;19.208;2023-07-16T09:41:29;14.93;;;4.38;;
64957;SDS011;51486;50.232;19.208;2023-07-16T09:44:15;5.25;;;3.90;;
64957;SDS011;51486;50.232;19.208;2023-07-16T09:47:01;5.63;;;4.03;;
64957;SDS011;51486;50.232;19.208;2023-07-16T09:49:47;5.68;;;3.97;;
64957;SDS011;51486;50.232;19.208;2023-07-16T09:52:33;4.85;;;3.80;;
64957;SDS011;51486;50.232;19.208;2023-07-16T09:55:20;5.50;;;3.67;;
64957;SDS011;51486;50.232;19.208;2023-07-16T09:58:08;7.13;;;4.50;;
64957;SDS011;51486;50.232;19.208;2023-07-16T10:00:55;6.70;;;4.05;;
64957;SDS011;51486;50.232;19.208;2023-07-16T10:03:50;11.63;;;4.30;;
64957;SDS011;51486;50.232;19.208;2023-07-16T10:06:37;7.53;;;4.35;;
64957;SDS011;51486;50.232;19.208;2023-07-16T10:12:19;8.05;;;3.90;;
64957;SDS011;51486;50.232;19.208;2023-07-16T10:15:05;5.00;;;3.58;;
64957;SDS011;51486;50.232;19.208;2023-07-16T10:17:51;9.65;;;4.93;;
64957;SDS011;51486;50.232;19.208;2023-07-16T10:20:37;9.00;;;4.38;;
64957;SDS011;51486;50.232;19.208;2023-07-16T10:23:36;6.13;;;4.15;;
64957;SDS011;51486;50.232;19.208;2023-07-16T10:26:25;7.03;;;3.75;;
64957;SDS011;51486;50.232;19.208;2023-07-16T10:29:11;4.68;;;3.60;;
64957;SDS011;51486;50.232;19.208;2023-07-16T10:31:58;8.57;;;4.53;;
64957;SDS011;51486;50.232;19.208;2023-07-16T10:34:44;5.82;;;3.88;;
64957;SDS011;51486;50.232;19.208;2023-07-16T10:37:29;4.60;;;3.67;;
64957;SDS011;51486;50.232;19.208;2023-07-16T10:40:15;9.07;;;3.83;;
64957;SDS011;51486;50.232;19.208;2023-07-16T10:43:01;7.07;;;3.50;;
64957;SDS011;51486;50.232;19.208;2023-07-16T10:45:47;5.53;;;3.75;;
64957;SDS011;51486;50.232;19.208;2023-07-16T10:48:33;5.15;;;3.67;;
64957;SDS011;51486;50.232;19.208;2023-07-16T10:51:24;4.25;;;2.97;;
64957;SDS011;51486;50.232;19.208;2023-07-16T10:54:10;6.03;;;3.75;;
64957;SDS011;51486;50.232;19.208;2023-07-16T10:56:56;8.77;;;3.70;;
64957;SDS011;51486;50.232;19.208;2023-07-16T10:59:42;4.25;;;2.95;;
64957;SDS011;51486;50.232;19.208;2023-07-16T11:02:29;6.43;;;2.88;;
64957;SDS011;51486;50.232;19.208;2023-07-16T11:05:15;4.63;;;2.97;;
64957;SDS011;51486;50.232;19.208;2023-07-16T11:08:01;6.57;;;3.47;;
64957;SDS011;51486;50.232;19.208;2023-07-16T11:10:52;3.53;;;2.65;;
64957;SDS011;51486;50.232;19.208;2023-07-16T11:13:38;5.57;;;3.20;;
64957;SDS011;51486;50.232;19.208;2023-07-16T11:16:24;4.10;;;2.72;;
64957;SDS011;51486;50.232;19.208;2023-07-16T11:19:09;5.03;;;3.00;;
64957;SDS011;51486;50.232;19.208;2023-07-16T11:21:55;4.80;;;2.83;;
64957;SDS011;51486;50.232;19.208;2023-07-16T11:24:42;3.90;;;2.67;;
64957;SDS011;51486;50.232;19.208;2023-07-16T11:27:30;4.15;;;2.42;;
64957;SDS011;51486;50.232;19.208;2023-07-16T11:30:21;4.53;;;2.70;;
64957;SDS011;51486;50.232;19.208;2023-07-16T11:33:10;8.65;;;2.47;;
64957;SDS011;51486;50.232;19.208;2023-07-16T11:35:57;3.38;;;2.50;;
64957;SDS011;51486;50.232;19.208;2023-07-16T11:38:42;2.88;;;2.45;;
64957;SDS011;51486;50.232;19.208;2023-07-16T11:41:28;3.53;;;2.53;;
64957;SDS011;51486;50.232;19.208;2023-07-16T11:44:14;4.80;;;3.30;;
64957;SDS011;51486;50.232;19.208;2023-07-16T11:46:59;3.40;;;2.63;;
64957;SDS011;51486;50.232;19.208;2023-07-16T11:49:45;3.78;;;2.58;;
64957;SDS011;51486;50.232;19.208;2023-07-16T11:52:31;6.10;;;2.78;;
64957;SDS011;51486;50.232;19.208;2023-07-16T11:55:17;3.70;;;2.80;;
64957;SDS011;51486;50.232;19.208;2023-07-16T11:58:02;4.28;;;3.03;;
64957;SDS011;51486;50.232;19.208;2023-07-16T12:00:48;2.85;;;2.45;;
64957;SDS011;51486;50.232;19.208;2023-07-16T12:03:36;3.90;;;2.63;;
64957;SDS011;51486;50.232;19.208;2023-07-16T12:06:22;4.03;;;2.78;;
64957;SDS011;51486;50.232;19.208;2023-07-16T12:09:07;4.15;;;2.60;;
64957;SDS011;51486;50.232;19.208;2023-07-16T12:11:53;6.95;;;2.50;;
64957;SDS011;51486;50.232;19.208;2023-07-16T12:14:39;4.72;;;2.75;;
64957;SDS011;51486;50.232;19.208;2023-07-16T12:17:24;8.70;;;2.72;;
64957;SDS011;51486;50.232;19.208;2023-07-16T12:20:10;4.40;;;2.92;;
64957;SDS011;51486;50.232;19.208;2023-07-16T12:22:56;5.90;;;2.80;;
64957;SDS011;51486;50.232;19.208;2023-07-16T12:25:42;5.30;;;3.40;;
64957;SDS011;51486;50.232;19.208;2023-07-16T12:28:28;4.03;;;2.70;;
64957;SDS011;51486;50.232;19.208;2023-07-16T12:31:14;4.15;;;2.83;;
64957;SDS011;51486;50.232;19.208;2023-07-16T12:34:01;4.00;;;2.75;;
64957;SDS011;51486;50.232;19.208;2023-07-16T12:36:47;3.05;;;2.45;;
64957;SDS011;51486;50.232;19.208;2023-07-16T12:39:33;5.03;;;2.53;;
64957;SDS011;51486;50.232;19.208;2023-07-16T12:42:19;4.18;;;2.25;;
64957;SDS011;51486;50.232;19.208;2023-07-16T12:45:04;7.20;;;2.78;;
64957;SDS011;51486;50.232;19.208;2023-07-16T12:47:50;6.22;;;3.40;;
64957;SDS011;51486;50.232;19.208;2023-07-16T12:50:36;6.65;;;2.88;;
64957;SDS011;51486;50.232;19.208;2023-07-16T12:53:22;9.43;;;3.25;;
64957;SDS011;51486;50.232;19.208;2023-07-16T12:56:08;5.30;;;2.45;;
64957;SDS011;51486;50.232;19.208;2023-07-16T12:58:54;4.97;;;2.92;;
64957;SDS011;51486;50.232;19.208;2023-07-16T13:01:39;3.00;;;2.15;;
64957;SDS011;51486;50.232;19.208;2023-07-16T13:04:25;3.10;;;2.38;;
64957;SDS011;51486;50.232;19.208;2023-07-16T13:07:11;4.32;;;3.05;;
64957;SDS011;51486;50.232;19.208;2023-07-16T13:09:57;3.03;;;2.28;;
64957;SDS011;51486;50.232;19.208;2023-07-16T13:12:43;12.88;;;3.25;;
64957;SDS011;51486;50.232;19.208;2023-07-16T13:15:29;6.32;;;2.92;;
64957;SDS011;51486;50.232;19.208;2023-07-16T13:18:14;3.75;;;2.67;;
64957;SDS011;51486;50.232;19.208;2023-07-16T13:21:00;5.72;;;2.75;;
64957;SDS011;51486;50.232;19.208;2023-07-16T13:23:46;3.80;;;2.80;;
64957;SDS011;51486;50.232;19.208;2023-07-16T13:26:32;4.50;;;2.90;;
64957;SDS011;51486;50.232;19.208;2023-07-16T13:29:17;4.60;;;2.63;;
64957;SDS011;51486;50.232;19.208;2023-07-16T13:32:03;3.95;;;2.63;;
64957;SDS011;51486;50.232;19.208;2023-07-16T13:34:49;5.45;;;2.65;;
64957;SDS011;51486;50.232;19.208;2023-07-16T13:37:35;5.72;;;2.63;;
64957;SDS011;51486;50.232;19.208;2023-07-16T13:40:20;3.47;;;2.33;;
64957;SDS011;51486;50.232;19.208;2023-07-16T13:43:06;10.30;;;3.03;;
64957;SDS011;51486;50.232;19.208;2023-07-16T13:45:52;3.58;;;2.40;;
64957;SDS011;51486;50.232;19.208;2023-07-16T13:48:37;3.20;;;2.30;;
64957;SDS011;51486;50.232;19.208;2023-07-16T13:51:24;3.92;;;2.35;;
64957;SDS011;51486;50.232;19.208;2023-07-16T13:54:11;4.05;;;2.42;;
64957;SDS011;51486;50.232;19.208;2023-07-16T13:56:57;5.28;;;3.22;;
64957;SDS011;51486;50.232;19.208;2023-07-16T13:59:43;8.68;;;3.00;;
64957;SDS011;51486;50.232;19.208;2023-07-16T14:02:28;5.40;;;3.45;;
64957;SDS011;51486;50.232;19.208;2023-07-16T14:05:14;5.20;;;3.45;;
64957;SDS011;51486;50.232;19.208;2023-07-16T14:08:00;5.18;;;3.45;;
64957;SDS011;51486;50.232;19.208;2023-07-16T14:10:46;6.65;;;3.47;;
64957;SDS011;51486;50.232;19.208;2023-07-16T14:13:31;4.53;;;3.22;;
64957;SDS011;51486;50.232;19.208;2023-07-16T14:16:17;8.50;;;3.13;;
64957;SDS011;51486;50.232;19.208;2023-07-16T14:19:03;4.95;;;3.60;;
64957;SDS011;51486;50.232;19.208;2023-07-16T14:21:49;4.10;;;3.15;;
64957;SDS011;51486;50.232;19.208;2023-07-16T14:24:35;4.82;;;2.95;;
64957;SDS011;51486;50.232;19.208;2023-07-16T14:27:20;7.63;;;3.42;;
64957;SDS011;51486;50.232;19.208;2023-07-16T14:30:06;5.32;;;3.22;;
64957;SDS011;51486;50.232;19.208;2023-07-16T14:32:53;4.82;;;3.50;;
64957;SDS011;51486;50.232;19.208;2023-07-16T14:35:38;6.13;;;3.95;;
64957;SDS011;51486;50.232;19.208;2023-07-16T14:38:24;7.65;;;3.40;;
64957;SDS011;51486;50.232;19.208;2023-07-16T14:41:10;4.20;;;3.22;;
64957;SDS011;51486;50.232;19.208;2023-07-16T14:43:56;6.15;;;3.80;;
64957;SDS011;51486;50.232;19.208;2023-07-16T14:46:41;5.65;;;3.17;;
64957;SDS011;51486;50.232;19.208;2023-07-16T14:49:27;7.38;;;3.30;;
64957;SDS011;51486;50.232;19.208;2023-07-16T14:52:13;5.40;;;3.28;;
64957;SDS011;51486;50.232;19.208;2023-07-16T14:54:58;5.57;;;3.33;;
64957;SDS011;51486;50.232;19.208;2023-07-16T14:57:44;6.13;;;3.78;;
64957;SDS011;51486;50.232;19.208;2023-07-16T15:00:30;5.28;;;3.88;;
64957;SDS011;51486;50.232;19.208;2023-07-16T15:03:15;7.95;;;3.03;;
64957;SDS011;51486;50.232;19.208;2023-07-16T15:06:01;5.55;;;3.33;;
64957;SDS011;51486;50.232;19.208;2023-07-16T15:08:47;8.15;;;3.40;;
64957;SDS011;51486;50.232;19.208;2023-07-16T15:11:33;7.50;;;4.03;;
64957;SDS011;51486;50.232;19.208;2023-07-16T15:14:19;4.97;;;3.70;;
64957;SDS011;51486;50.232;19.208;2023-07-16T15:17:05;4.20;;;3.53;;
64957;SDS011;51486;50.232;19.208;2023-07-16T15:19:51;6.97;;;4.40;;
64957;SDS011;51486;50.232;19.208;2023-07-16T15:22:37;5.10;;;3.83;;
64957;SDS011;51486;50.232;19.208;2023-07-16T15:25:23;6.95;;;3.78;;
64957;SDS011;51486;50.232;19.208;2023-07-16T15:28:09;5.85;;;4.03;;
64957;SDS011;51486;50.232;19.208;2023-07-16T15:30:56;7.00;;;4.00;;
64957;SDS011;51486;50.232;19.208;2023-07-16T15:33:42;6.00;;;3.78;;
64957;SDS011;51486;50.232;19.208;2023-07-16T15:36:27;4.28;;;3.25;;
64957;SDS011;51486;50.232;19.208;2023-07-16T15:39:13;6.22;;;3.67;;
64957;SDS011;51486;50.232;19.208;2023-07-16T15:41:59;5.43;;;4.00;;
64957;SDS011;51486;50.232;19.208;2023-07-16T15:44:44;5.65;;;3.78;;
64957;SDS011;51486;50.232;19.208;2023-07-16T15:47:30;5.40;;;3.72;;
64957;SDS011;51486;50.232;19.208;2023-07-16T15:50:16;4.82;;;3.67;;
64957;SDS011;51486;50.232;19.208;2023-07-16T15:53:02;7.68;;;4.35;;
64957;SDS011;51486;50.232;19.208;2023-07-16T15:55:47;5.60;;;4.00;;
64957;SDS011;51486;50.232;19.208;2023-07-16T15:58:33;4.47;;;3.28;;
64957;SDS011;51486;50.232;19.208;2023-07-16T16:01:19;7.40;;;3.42;;
64957;SDS011;51486;50.232;19.208;2023-07-16T16:04:05;5.78;;;3.65;;
64957;SDS011;51486;50.232;19.208;2023-07-16T16:06:51;5.63;;;3.40;;
64957;SDS011;51486;50.232;19.208;2023-07-16T16:09:37;4.72;;;3.20;;
64957;SDS011;51486;50.232;19.208;2023-07-16T16:12:22;4.55;;;3.10;;
64957;SDS011;51486;50.232;19.208;2023-07-16T16:15:08;5.68;;;3.58;;
64957;SDS011;51486;50.232;19.208;2023-07-16T16:17:54;5.85;;;3.38;;
64957;SDS011;51486;50.232;19.208;2023-07-16T16:20:40;5.25;;;3.30;;
64957;SDS011;51486;50.232;19.208;2023-07-16T16:23:27;5.82;;;3.63;;
64957;SDS011;51486;50.232;19.208;2023-07-16T16:26:12;5.50;;;3.90;;
64957;SDS011;51486;50.232;19.208;2023-07-16T16:28:58;5.03;;;3.72;;
64957;SDS011;51486;50.232;19.208;2023-07-16T16:31:44;9.32;;;3.40;;
64957;SDS011;51486;50.232;19.208;2023-07-16T16:34:30;4.80;;;3.05;;
64957;SDS011;51486;50.232;19.208;2023-07-16T16:37:15;4.80;;;3.17;;